sensor_id;sensor_type;location;lat;lon;timestamp;temperature;humidity
24636;DHT22;12772;49.794;10.024;2024-03-08T00:03:19;5.30;44.40
24636;DHT22;12772;49.794;10.024;2024-03-08T00:07:21;5.20;44.60
24636;DHT22;12772;49.794;10.024;2024-03-08T00:11:23;4.90;44.50
24636;DHT22;12772;49.794;10.024;2024-03-08T00:15:26;5.30;45.00
24636;DHT22;12772;49.794;10.024;2024-03-08T00:19:30;5.10;44.80
24636;DHT22;12772;49.794;10.024;2024-03-08T00:23:32;5.00;44.80
24636;DHT22;12772;49.794;10.024;2024-03-08T00:27:34;5.10;45.20
24636;DHT22;12772;49.794;10.024;2024-03-08T00:31:36;4.90;44.80
24636;DHT22;12772;49.794;10.024;2024-03-08T00:35:38;5.40;46.00
24636;DHT22;12772;49.794;10.024;2024-03-08T00:39:40;5.40;45.40
24636;DHT22;12772;49.794;10.024;2024-03-08T00:43:42;5.30;45.60
24636;DHT22;12772;49.794;10.024;2024-03-08T00:47:44;5.30;46.00
24636;DHT22;12772;49.794;10.024;2024-03-08T00:51:46;4.70;45.90
24636;DHT22;12772;49.794;10.024;2024-03-08T00:55:48;5.00;46.50
24636;DHT22;12772;49.794;10.024;2024-03-08T00:59:50;5.00;46.90
24636;DHT22;12772;49.794;10.024;2024-03-08T01:03:53;5.00;47.00
24636;DHT22;12772;49.794;10.024;2024-03-08T01:07:55;4.90;46.90
24636;DHT22;12772;49.794;10.024;2024-03-08T01:11:57;5.00;46.60
24636;DHT22;12772;49.794;10.024;2024-03-08T01:15:59;5.00;47.10
24636;DHT22;12772;49.794;10.024;2024-03-08T01:20:01;4.90;47.20
24636;DHT22;12772;49.794;10.024;2024-03-08T01:24:03;4.30;46.80
24636;DHT22;12772;49.794;10.024;2024-03-08T01:28:05;4.90;47.90
24636;DHT22;12772;49.794;10.024;2024-03-08T01:32:08;4.20;47.60
24636;DHT22;12772;49.794;10.024;2024-03-08T01:36:10;4.40;48.00
24636;DHT22;12772;49.794;10.024;2024-03-08T01:40:12;4.60;48.40
24636;DHT22;12772;49.794;10.024;2024-03-08T01:44:13;4.50;48.40
24636;DHT22;12772;49.794;10.024;2024-03-08T01:48:19;4.70;48.70
24636;DHT22;12772;49.794;10.024;2024-03-08T01:52:22;4.70;48.60
24636;DHT22;12772;49.794;10.024;2024-03-08T01:56:26;4.30;48.10
24636;DHT22;12772;49.794;10.024;2024-03-08T02:00:28;5.00;48.90
24636;DHT22;12772;49.794;10.024;2024-03-08T02:04:30;4.90;48.60
24636;DHT22;12772;49.794;10.024;2024-03-08T02:08:32;4.60;47.90
24636;DHT22;12772;49.794;10.024;2024-03-08T02:12:35;4.80;48.10
24636;DHT22;12772;49.794;10.024;2024-03-08T02:16:38;5.20;48.20
24636;DHT22;12772;49.794;10.024;2024-03-08T02:20:40;4.80;47.60
24636;DHT22;12772;49.794;10.024;2024-03-08T02:24:43;5.20;47.60
24636;DHT22;12772;49.794;10.024;2024-03-08T02:28:45;5.10;47.40
24636;DHT22;12772;49.794;10.024;2024-03-08T02:32:48;5.10;47.40
24636;DHT22;12772;49.794;10.024;2024-03-08T02:36:50;4.90;47.00
24636;DHT22;12772;49.794;10.024;2024-03-08T02:40:53;5.00;47.40
24636;DHT22;12772;49.794;10.024;2024-03-08T02:44:55;5.00;47.40
24636;DHT22;12772;49.794;10.024;2024-03-08T02:48:57;5.20;47.90
24636;DHT22;12772;49.794;10.024;2024-03-08T02:52:59;5.20;47.90
24636;DHT22;12772;49.794;10.024;2024-03-08T02:57:01;4.60;47.30
24636;DHT22;12772;49.794;10.024;2024-03-08T03:01:04;5.10;47.30
24636;DHT22;12772;49.794;10.024;2024-03-08T03:05:07;5.20;47.60
24636;DHT22;12772;49.794;10.024;2024-03-08T03:09:10;5.20;47.70
24636;DHT22;12772;49.794;10.024;2024-03-08T03:13:12;5.20;47.60
24636;DHT22;12772;49.794;10.024;2024-03-08T03:17:14;4.90;47.20
24636;DHT22;12772;49.794;10.024;2024-03-08T03:21:17;5.30;47.40
24636;DHT22;12772;49.794;10.024;2024-03-08T03:25:19;4.80;46.60
24636;DHT22;12772;49.794;10.024;2024-03-08T03:29:25;5.20;47.10
24636;DHT22;12772;49.794;10.024;2024-03-08T03:33:27;4.70;46.90
24636;DHT22;12772;49.794;10.024;2024-03-08T03:37:29;4.80;47.50
24636;DHT22;12772;49.794;10.024;2024-03-08T03:41:31;4.80;48.00
24636;DHT22;12772;49.794;10.024;2024-03-08T03:45:33;4.90;48.50
24636;DHT22;12772;49.794;10.024;2024-03-08T03:49:35;4.50;48.60
24636;DHT22;12772;49.794;10.024;2024-03-08T03:53:37;4.70;49.60
24636;DHT22;12772;49.794;10.024;2024-03-08T03:57:40;4.40;49.10
24636;DHT22;12772;49.794;10.024;2024-03-08T04:01:42;4.50;49.70
24636;DHT22;12772;49.794;10.024;2024-03-08T04:05:46;4.10;49.40
24636;DHT22;12772;49.794;10.024;2024-03-08T04:09:48;4.60;50.10
24636;DHT22;12772;49.794;10.024;2024-03-08T04:13:50;4.20;49.50
24636;DHT22;12772;49.794;10.024;2024-03-08T04:17:53;4.60;49.60
24636;DHT22;12772;49.794;10.024;2024-03-08T04:21:55;4.60;49.50
24636;DHT22;12772;49.794;10.024;2024-03-08T04:25:57;4.50;49.40
24636;DHT22;12772;49.794;10.024;2024-03-08T04:30:00;4.50;49.40
24636;DHT22;12772;49.794;10.024;2024-03-08T04:34:02;4.80;49.80
24636;DHT22;12772;49.794;10.024;2024-03-08T04:38:05;4.70;49.50
24636;DHT22;12772;49.794;10.024;2024-03-08T04:42:08;4.10;48.80
24636;DHT22;12772;49.794;10.024;2024-03-08T04:46:11;4.70;49.50
24636;DHT22;12772;49.794;10.024;2024-03-08T04:50:13;4.50;49.30
24636;DHT22;12772;49.794;10.024;2024-03-08T04:54:15;4.70;49.80
24636;DHT22;12772;49.794;10.024;2024-03-08T04:58:17;4.20;49.50
24636;DHT22;12772;49.794;10.024;2024-03-08T05:02:19;4.20;50.20
24636;DHT22;12772;49.794;10.024;2024-03-08T05:06:23;4.10;50.40
24636;DHT22;12772;49.794;10.024;2024-03-08T05:10:25;3.90;50.70
24636;DHT22;12772;49.794;10.024;2024-03-08T05:14:27;4.10;51.90
24636;DHT22;12772;49.794;10.024;2024-03-08T05:18:29;3.90;51.80
24636;DHT22;12772;49.794;10.024;2024-03-08T05:22:32;3.70;51.60
24636;DHT22;12772;49.794;10.024;2024-03-08T05:26:34;3.40;51.30
24636;DHT22;12772;49.794;10.024;2024-03-08T05:30:38;3.70;52.20
24636;DHT22;12772;49.794;10.024;2024-03-08T05:34:40;3.80;53.20
24636;DHT22;12772;49.794;10.024;2024-03-08T05:38:43;3.70;53.80
24636;DHT22;12772;49.794;10.024;2024-03-08T05:42:45;3.50;54.00
24636;DHT22;12772;49.794;10.024;2024-03-08T05:46:47;3.50;54.40
24636;DHT22;12772;49.794;10.024;2024-03-08T05:50:49;3.50;54.60
24636;DHT22;12772;49.794;10.024;2024-03-08T05:54:51;3.60;54.80
24636;DHT22;12772;49.794;10.024;2024-03-08T05:58:53;3.60;55.00
24636;DHT22;12772;49.794;10.024;2024-03-08T06:02:56;3.50;55.30
24636;DHT22;12772;49.794;10.024;2024-03-08T06:06:59;3.60;55.70
24636;DHT22;12772;49.794;10.024;2024-03-08T06:11:01;3.50;55.60
24636;DHT22;12772;49.794;10.024;2024-03-08T06:15:04;3.50;55.70
24636;DHT22;12772;49.794;10.024;2024-03-08T06:19:06;3.50;55.70
24636;DHT22;12772;49.794;10.024;2024-03-08T06:23:08;3.50;55.80
24636;DHT22;12772;49.794;10.024;2024-03-08T06:27:10;3.20;55.70
24636;DHT22;12772;49.794;10.024;2024-03-08T06:31:12;3.50;56.10
24636;DHT22;12772;49.794;10.024;2024-03-08T06:35:15;3.50;56.30
24636;DHT22;12772;49.794;10.024;2024-03-08T06:39:17;3.40;56.50
24636;DHT22;12772;49.794;10.024;2024-03-08T06:43:19;3.70;56.70
24636;DHT22;12772;49.794;10.024;2024-03-08T06:47:22;3.90;56.80
24636;DHT22;12772;49.794;10.024;2024-03-08T06:51:26;3.80;56.60
24636;DHT22;12772;49.794;10.024;2024-03-08T06:55:28;4.00;56.60
24636;DHT22;12772;49.794;10.024;2024-03-08T06:59:33;4.20;56.90
24636;DHT22;12772;49.794;10.024;2024-03-08T07:03:36;4.10;57.20
24636;DHT22;12772;49.794;10.024;2024-03-08T07:07:39;4.00;57.50
24636;DHT22;12772;49.794;10.024;2024-03-08T07:11:42;4.10;57.70
24636;DHT22;12772;49.794;10.024;2024-03-08T07:15:44;4.30;57.70
24636;DHT22;12772;49.794;10.024;2024-03-08T07:19:47;4.10;57.40
24636;DHT22;12772;49.794;10.024;2024-03-08T07:23:49;4.30;57.60
24636;DHT22;12772;49.794;10.024;2024-03-08T07:28:15;4.10;57.40
24636;DHT22;12772;49.794;10.024;2024-03-08T07:32:17;4.50;57.40
24636;DHT22;12772;49.794;10.024;2024-03-08T07:36:21;4.50;56.90
24636;DHT22;12772;49.794;10.024;2024-03-08T07:40:24;4.70;56.80
24636;DHT22;12772;49.794;10.024;2024-03-08T07:44:26;4.90;57.20
24636;DHT22;12772;49.794;10.024;2024-03-08T07:48:28;4.90;56.80
24636;DHT22;12772;49.794;10.024;2024-03-08T07:52:31;4.90;56.30
24636;DHT22;12772;49.794;10.024;2024-03-08T07:56:34;4.70;55.90
24636;DHT22;12772;49.794;10.024;2024-03-08T08:00:37;4.80;55.70
24636;DHT22;12772;49.794;10.024;2024-03-08T08:04:39;5.10;55.90
24636;DHT22;12772;49.794;10.024;2024-03-08T08:08:44;4.90;56.00
24636;DHT22;12772;49.794;10.024;2024-03-08T08:12:46;5.20;55.80
24636;DHT22;12772;49.794;10.024;2024-03-08T08:16:48;5.60;55.90
24636;DHT22;12772;49.794;10.024;2024-03-08T08:20:53;5.20;55.30
24636;DHT22;12772;49.794;10.024;2024-03-08T08:24:55;5.50;55.20
24636;DHT22;12772;49.794;10.024;2024-03-08T08:28:57;5.20;54.20
24636;DHT22;12772;49.794;10.024;2024-03-08T08:33:00;5.90;54.50
24636;DHT22;12772;49.794;10.024;2024-03-08T08:37:02;6.00;54.00
24636;DHT22;12772;49.794;10.024;2024-03-08T08:41:04;6.10;54.10
24636;DHT22;12772;49.794;10.024;2024-03-08T08:45:07;6.40;54.40
24636;DHT22;12772;49.794;10.024;2024-03-08T08:49:09;6.60;54.60
24636;DHT22;12772;49.794;10.024;2024-03-08T08:53:15;6.60;54.20
24636;DHT22;12772;49.794;10.024;2024-03-08T08:57:17;6.70;53.10
24636;DHT22;12772;49.794;10.024;2024-03-08T09:01:20;6.90;51.40
24636;DHT22;12772;49.794;10.024;2024-03-08T09:05:22;6.60;50.60
24636;DHT22;12772;49.794;10.024;2024-03-08T09:09:25;7.10;51.40
24636;DHT22;12772;49.794;10.024;2024-03-08T09:13:27;6.70;50.00
24636;DHT22;12772;49.794;10.024;2024-03-08T09:17:29;7.30;50.40
24636;DHT22;12772;49.794;10.024;2024-03-08T09:21:31;7.50;49.60
24636;DHT22;12772;49.794;10.024;2024-03-08T09:25:33;7.20;48.60
24636;DHT22;12772;49.794;10.024;2024-03-08T09:29:35;7.70;47.90
24636;DHT22;12772;49.794;10.024;2024-03-08T09:33:38;7.60;46.60
24636;DHT22;12772;49.794;10.024;2024-03-08T09:37:40;8.20;47.00
24636;DHT22;12772;49.794;10.024;2024-03-08T09:41:43;8.40;47.10
24636;DHT22;12772;49.794;10.024;2024-03-08T09:45:45;8.30;45.10
24636;DHT22;12772;49.794;10.024;2024-03-08T09:49:51;8.90;43.90
24636;DHT22;12772;49.794;10.024;2024-03-08T09:53:54;8.90;43.80
24636;DHT22;12772;49.794;10.024;2024-03-08T09:57:56;9.30;42.50
24636;DHT22;12772;49.794;10.024;2024-03-08T10:02:27;9.40;42.10
24636;DHT22;12772;49.794;10.024;2024-03-08T10:06:30;9.30;41.80
24636;DHT22;12772;49.794;10.024;2024-03-08T10:10:35;9.70;41.30
24636;DHT22;12772;49.794;10.024;2024-03-08T10:14:39;9.90;40.20
24636;DHT22;12772;49.794;10.024;2024-03-08T10:18:42;9.70;39.50
24636;DHT22;12772;49.794;10.024;2024-03-08T10:22:46;10.00;38.30
24636;DHT22;12772;49.794;10.024;2024-03-08T10:26:51;10.20;38.50
24636;DHT22;12772;49.794;10.024;2024-03-08T10:30:54;10.50;38.00
24636;DHT22;12772;49.794;10.024;2024-03-08T10:34:57;10.30;36.80
24636;DHT22;12772;49.794;10.024;2024-03-08T10:39:01;10.40;36.70
24636;DHT22;12772;49.794;10.024;2024-03-08T10:43:04;10.50;37.00
24636;DHT22;12772;49.794;10.024;2024-03-08T10:47:26;10.40;35.70
24636;DHT22;12772;49.794;10.024;2024-03-08T10:51:31;10.90;35.50
24636;DHT22;12772;49.794;10.024;2024-03-08T10:55:34;10.90;35.90
24636;DHT22;12772;49.794;10.024;2024-03-08T10:59:39;11.00;35.50
24636;DHT22;12772;49.794;10.024;2024-03-08T11:03:46;10.90;35.30
24636;DHT22;12772;49.794;10.024;2024-03-08T11:07:50;11.30;33.90
24636;DHT22;12772;49.794;10.024;2024-03-08T11:11:52;11.40;33.90
24636;DHT22;12772;49.794;10.024;2024-03-08T11:20:27;11.50;33.80
24636;DHT22;12772;49.794;10.024;2024-03-08T11:24:39;11.60;33.40
24636;DHT22;12772;49.794;10.024;2024-03-08T11:28:45;11.80;33.40
24636;DHT22;12772;49.794;10.024;2024-03-08T11:32:48;12.00;32.60
24636;DHT22;12772;49.794;10.024;2024-03-08T11:36:53;12.10;32.40
24636;DHT22;12772;49.794;10.024;2024-03-08T11:40:57;12.20;32.50
24636;DHT22;12772;49.794;10.024;2024-03-08T11:44:59;12.30;32.50
24636;DHT22;12772;49.794;10.024;2024-03-08T11:49:04;12.40;32.70
24636;DHT22;12772;49.794;10.024;2024-03-08T11:53:06;12.60;32.90
24636;DHT22;12772;49.794;10.024;2024-03-08T11:57:08;12.80;32.20
24636;DHT22;12772;49.794;10.024;2024-03-08T12:01:11;12.90;32.00
24636;DHT22;12772;49.794;10.024;2024-03-08T12:05:13;13.10;31.10
24636;DHT22;12772;49.794;10.024;2024-03-08T12:09:17;13.20;30.90
24636;DHT22;12772;49.794;10.024;2024-03-08T12:13:20;13.30;30.00
24636;DHT22;12772;49.794;10.024;2024-03-08T12:17:22;13.50;29.90
24636;DHT22;12772;49.794;10.024;2024-03-08T12:21:26;13.60;30.00
24636;DHT22;12772;49.794;10.024;2024-03-08T12:25:31;13.70;29.70
24636;DHT22;12772;49.794;10.024;2024-03-08T12:29:38;13.90;29.40
24636;DHT22;12772;49.794;10.024;2024-03-08T12:33:49;13.90;28.50
24636;DHT22;12772;49.794;10.024;2024-03-08T12:37:59;13.90;28.50
24636;DHT22;12772;49.794;10.024;2024-03-08T12:42:01;14.00;28.70
24636;DHT22;12772;49.794;10.024;2024-03-08T12:46:03;14.10;28.50
24636;DHT22;12772;49.794;10.024;2024-03-08T12:50:06;14.10;28.10
24636;DHT22;12772;49.794;10.024;2024-03-08T12:54:09;14.10;28.10
24636;DHT22;12772;49.794;10.024;2024-03-08T12:58:11;14.30;28.30
24636;DHT22;12772;49.794;10.024;2024-03-08T13:02:13;14.30;28.10
24636;DHT22;12772;49.794;10.024;2024-03-08T13:06:17;14.30;27.70
24636;DHT22;12772;49.794;10.024;2024-03-08T13:10:20;14.40;27.30
24636;DHT22;12772;49.794;10.024;2024-03-08T13:14:23;14.60;27.60
24636;DHT22;12772;49.794;10.024;2024-03-08T13:18:25;14.70;27.10
24636;DHT22;12772;49.794;10.024;2024-03-08T13:22:28;14.80;26.70
24636;DHT22;12772;49.794;10.024;2024-03-08T13:26:31;14.80;26.60
24636;DHT22;12772;49.794;10.024;2024-03-08T13:30:33;14.80;26.70
24636;DHT22;12772;49.794;10.024;2024-03-08T13:34:36;14.80;26.20
24636;DHT22;12772;49.794;10.024;2024-03-08T13:38:38;14.70;25.70
24636;DHT22;12772;49.794;10.024;2024-03-08T13:42:41;14.70;26.00
24636;DHT22;12772;49.794;10.024;2024-03-08T13:46:43;14.70;25.90
24636;DHT22;12772;49.794;10.024;2024-03-08T13:50:45;14.80;26.20
24636;DHT22;12772;49.794;10.024;2024-03-08T13:54:47;14.90;25.40
24636;DHT22;12772;49.794;10.024;2024-03-08T13:58:50;14.80;25.20
24636;DHT22;12772;49.794;10.024;2024-03-08T14:02:52;14.80;25.40
24636;DHT22;12772;49.794;10.024;2024-03-08T14:06:55;14.70;25.40
24636;DHT22;12772;49.794;10.024;2024-03-08T14:11:02;14.70;25.20
24636;DHT22;12772;49.794;10.024;2024-03-08T14:15:11;14.70;25.40
24636;DHT22;12772;49.794;10.024;2024-03-08T14:19:13;14.60;25.30
24636;DHT22;12772;49.794;10.024;2024-03-08T14:23:16;14.60;24.60
24636;DHT22;12772;49.794;10.024;2024-03-08T14:27:18;14.50;24.90
24636;DHT22;12772;49.794;10.024;2024-03-08T14:31:20;14.40;25.00
24636;DHT22;12772;49.794;10.024;2024-03-08T14:35:26;14.30;25.30
24636;DHT22;12772;49.794;10.024;2024-03-08T14:39:30;14.40;25.10
24636;DHT22;12772;49.794;10.024;2024-03-08T14:43:34;14.40;25.40
24636;DHT22;12772;49.794;10.024;2024-03-08T14:47:36;14.30;25.20
24636;DHT22;12772;49.794;10.024;2024-03-08T14:51:38;14.30;25.50
24636;DHT22;12772;49.794;10.024;2024-03-08T14:55:42;14.40;25.90
24636;DHT22;12772;49.794;10.024;2024-03-08T14:59:44;14.40;26.30
24636;DHT22;12772;49.794;10.024;2024-03-08T15:03:46;14.40;25.30
24636;DHT22;12772;49.794;10.024;2024-03-08T15:07:48;14.30;24.90
24636;DHT22;12772;49.794;10.024;2024-03-08T15:11:50;14.20;25.00
24636;DHT22;12772;49.794;10.024;2024-03-08T15:15:53;14.10;25.20
24636;DHT22;12772;49.794;10.024;2024-03-08T15:19:56;14.10;24.70
24636;DHT22;12772;49.794;10.024;2024-03-08T15:23:58;14.00;25.20
24636;DHT22;12772;49.794;10.024;2024-03-08T15:28:00;13.90;25.20
24636;DHT22;12772;49.794;10.024;2024-03-08T15:32:05;13.90;25.40
24636;DHT22;12772;49.794;10.024;2024-03-08T15:36:08;13.80;25.20
24636;DHT22;12772;49.794;10.024;2024-03-08T15:40:13;13.80;25.80
24636;DHT22;12772;49.794;10.024;2024-03-08T15:44:21;13.90;25.80
24636;DHT22;12772;49.794;10.024;2024-03-08T15:48:23;13.80;25.80
24636;DHT22;12772;49.794;10.024;2024-03-08T15:52:25;13.90;25.70
24636;DHT22;12772;49.794;10.024;2024-03-08T15:56:28;13.90;25.70
24636;DHT22;12772;49.794;10.024;2024-03-08T16:00:30;13.90;25.80
24636;DHT22;12772;49.794;10.024;2024-03-08T16:04:36;14.00;25.90
24636;DHT22;12772;49.794;10.024;2024-03-08T16:08:38;13.90;25.90
24636;DHT22;12772;49.794;10.024;2024-03-08T16:12:40;13.80;26.70
24636;DHT22;12772;49.794;10.024;2024-03-08T16:16:44;13.60;27.10
24636;DHT22;12772;49.794;10.024;2024-03-08T16:20:47;13.40;27.40
24636;DHT22;12772;49.794;10.024;2024-03-08T16:24:49;13.30;27.10
24636;DHT22;12772;49.794;10.024;2024-03-08T16:28:51;13.10;27.30
24636;DHT22;12772;49.794;10.024;2024-03-08T16:32:54;13.00;28.00
24636;DHT22;12772;49.794;10.024;2024-03-08T16:36:56;12.80;28.40
24636;DHT22;12772;49.794;10.024;2024-03-08T16:40:59;12.70;28.60
24636;DHT22;12772;49.794;10.024;2024-03-08T16:45:01;12.70;28.90
24636;DHT22;12772;49.794;10.024;2024-03-08T16:49:05;12.60;28.90
24636;DHT22;12772;49.794;10.024;2024-03-08T16:53:08;12.50;29.20
24636;DHT22;12772;49.794;10.024;2024-03-08T16:57:11;12.40;29.30
24636;DHT22;12772;49.794;10.024;2024-03-08T17:01:14;12.30;29.60
24636;DHT22;12772;49.794;10.024;2024-03-08T17:05:17;12.20;29.70
24636;DHT22;12772;49.794;10.024;2024-03-08T17:09:19;12.10;29.70
24636;DHT22;12772;49.794;10.024;2024-03-08T17:13:22;12.00;30.00
24636;DHT22;12772;49.794;10.024;2024-03-08T17:17:24;11.90;30.30
24636;DHT22;12772;49.794;10.024;2024-03-08T17:21:26;11.80;30.60
24636;DHT22;12772;49.794;10.024;2024-03-08T17:25:29;11.70;31.20
24636;DHT22;12772;49.794;10.024;2024-03-08T17:29:32;11.70;31.90
24636;DHT22;12772;49.794;10.024;2024-03-08T17:33:35;11.50;31.70
24636;DHT22;12772;49.794;10.024;2024-03-08T17:37:38;11.40;31.50
24636;DHT22;12772;49.794;10.024;2024-03-08T17:41:40;11.30;31.50
24636;DHT22;12772;49.794;10.024;2024-03-08T17:45:42;10.80;31.20
24636;DHT22;12772;49.794;10.024;2024-03-08T17:49:45;11.10;32.20
24636;DHT22;12772;49.794;10.024;2024-03-08T17:53:47;10.70;32.00
24636;DHT22;12772;49.794;10.024;2024-03-08T17:57:52;11.00;32.70
24636;DHT22;12772;49.794;10.024;2024-03-08T18:01:55;10.90;33.10
24636;DHT22;12772;49.794;10.024;2024-03-08T18:05:57;10.50;32.90
24636;DHT22;12772;49.794;10.024;2024-03-08T18:09:59;10.80;33.60
24636;DHT22;12772;49.794;10.024;2024-03-08T18:14:03;10.80;33.60
24636;DHT22;12772;49.794;10.024;2024-03-08T18:18:06;10.30;33.20
24636;DHT22;12772;49.794;10.024;2024-03-08T18:22:09;10.70;33.90
24636;DHT22;12772;49.794;10.024;2024-03-08T18:26:12;10.50;34.00
24636;DHT22;12772;49.794;10.024;2024-03-08T18:30:15;10.20;34.00
24636;DHT22;12772;49.794;10.024;2024-03-08T18:34:18;10.00;34.00
24636;DHT22;12772;49.794;10.024;2024-03-08T18:38:20;10.40;34.80
24636;DHT22;12772;49.794;10.024;2024-03-08T18:42:23;10.30;35.00
24636;DHT22;12772;49.794;10.024;2024-03-08T18:46:25;10.10;35.30
24636;DHT22;12772;49.794;10.024;2024-03-08T18:50:27;9.80;36.50
24636;DHT22;12772;49.794;10.024;2024-03-08T18:54:31;9.90;36.90
24636;DHT22;12772;49.794;10.024;2024-03-08T18:58:35;9.50;36.50
24636;DHT22;12772;49.794;10.024;2024-03-08T19:02:37;9.90;37.00
24636;DHT22;12772;49.794;10.024;2024-03-08T19:06:39;9.80;37.20
24636;DHT22;12772;49.794;10.024;2024-03-08T19:10:41;9.90;37.60
24636;DHT22;12772;49.794;10.024;2024-03-08T19:14:43;9.80;37.70
24636;DHT22;12772;49.794;10.024;2024-03-08T19:18:45;9.30;37.30
24636;DHT22;12772;49.794;10.024;2024-03-08T19:22:49;9.30;38.10
24636;DHT22;12772;49.794;10.024;2024-03-08T19:26:52;9.60;38.00
24636;DHT22;12772;49.794;10.024;2024-03-08T19:30:54;9.40;38.10
24636;DHT22;12772;49.794;10.024;2024-03-08T19:34:56;9.30;38.10
24636;DHT22;12772;49.794;10.024;2024-03-08T19:39:00;9.30;38.30
24636;DHT22;12772;49.794;10.024;2024-03-08T19:43:04;8.80;37.90
24636;DHT22;12772;49.794;10.024;2024-03-08T19:47:07;8.70;38.10
24636;DHT22;12772;49.794;10.024;2024-03-08T19:51:12;8.80;38.30
24636;DHT22;12772;49.794;10.024;2024-03-08T19:55:18;8.70;38.40
24636;DHT22;12772;49.794;10.024;2024-03-08T19:59:21;8.60;38.30
24636;DHT22;12772;49.794;10.024;2024-03-08T20:03:25;8.70;38.50
24636;DHT22;12772;49.794;10.024;2024-03-08T20:07:29;8.70;38.60
24636;DHT22;12772;49.794;10.024;2024-03-08T20:11:32;8.80;39.00
24636;DHT22;12772;49.794;10.024;2024-03-08T20:15:35;8.80;39.30
24636;DHT22;12772;49.794;10.024;2024-03-08T20:19:41;8.70;39.50
24636;DHT22;12772;49.794;10.024;2024-03-08T20:23:43;8.60;39.60
24636;DHT22;12772;49.794;10.024;2024-03-08T20:27:47;8.50;39.80
24636;DHT22;12772;49.794;10.024;2024-03-08T20:31:52;8.20;39.60
24636;DHT22;12772;49.794;10.024;2024-03-08T20:35:54;8.60;40.00
24636;DHT22;12772;49.794;10.024;2024-03-08T20:39:56;8.40;39.90
24636;DHT22;12772;49.794;10.024;2024-03-08T20:43:58;8.00;39.60
24636;DHT22;12772;49.794;10.024;2024-03-08T20:48:00;8.20;39.90
24636;DHT22;12772;49.794;10.024;2024-03-08T20:52:03;8.40;40.20
24636;DHT22;12772;49.794;10.024;2024-03-08T20:56:07;8.40;40.30
24636;DHT22;12772;49.794;10.024;2024-03-08T21:00:09;8.40;40.40
24636;DHT22;12772;49.794;10.024;2024-03-08T21:04:19;8.50;40.60
24636;DHT22;12772;49.794;10.024;2024-03-08T21:08:22;8.40;40.50
24636;DHT22;12772;49.794;10.024;2024-03-08T21:12:27;8.30;40.60
24636;DHT22;12772;49.794;10.024;2024-03-08T21:16:29;8.50;41.00
24636;DHT22;12772;49.794;10.024;2024-03-08T21:20:31;7.80;40.50
24636;DHT22;12772;49.794;10.024;2024-03-08T21:24:33;7.90;40.90
24636;DHT22;12772;49.794;10.024;2024-03-08T21:28:35;8.10;41.50
24636;DHT22;12772;49.794;10.024;2024-03-08T21:32:37;8.30;42.20
24636;DHT22;12772;49.794;10.024;2024-03-08T21:36:39;7.60;41.80
24636;DHT22;12772;49.794;10.024;2024-03-08T21:40:44;8.00;42.80
24636;DHT22;12772;49.794;10.024;2024-03-08T21:44:46;7.50;42.40
24636;DHT22;12772;49.794;10.024;2024-03-08T21:48:48;7.60;42.50
24636;DHT22;12772;49.794;10.024;2024-03-08T21:52:50;7.60;42.50
24636;DHT22;12772;49.794;10.024;2024-03-08T21:56:52;7.70;42.60
24636;DHT22;12772;49.794;10.024;2024-03-08T22:00:54;7.40;42.20
24636;DHT22;12772;49.794;10.024;2024-03-08T22:04:56;7.30;42.20
24636;DHT22;12772;49.794;10.024;2024-03-08T22:08:58;7.60;42.50
24636;DHT22;12772;49.794;10.024;2024-03-08T22:13:00;7.30;42.40
24636;DHT22;12772;49.794;10.024;2024-03-08T22:17:02;7.50;43.10
24636;DHT22;12772;49.794;10.024;2024-03-08T22:21:05;7.70;43.40
24636;DHT22;12772;49.794;10.024;2024-03-08T22:25:08;7.50;43.50
24636;DHT22;12772;49.794;10.024;2024-03-08T22:29:11;6.90;43.10
24636;DHT22;12772;49.794;10.024;2024-03-08T22:33:13;7.40;43.80
24636;DHT22;12772;49.794;10.024;2024-03-08T22:37:15;7.30;43.90
24636;DHT22;12772;49.794;10.024;2024-03-08T22:41:17;7.40;44.20
24636;DHT22;12772;49.794;10.024;2024-03-08T22:45:19;7.10;43.90
24636;DHT22;12772;49.794;10.024;2024-03-08T22:49:21;7.30;44.00
24636;DHT22;12772;49.794;10.024;2024-03-08T22:53:23;7.30;44.00
24636;DHT22;12772;49.794;10.024;2024-03-08T22:57:28;7.20;43.90
24636;DHT22;12772;49.794;10.024;2024-03-08T23:01:30;7.10;44.00
24636;DHT22;12772;49.794;10.024;2024-03-08T23:05:34;7.10;44.40
24636;DHT22;12772;49.794;10.024;2024-03-08T23:09:38;7.00;44.60
24636;DHT22;12772;49.794;10.024;2024-03-08T23:13:42;6.50;44.40
24636;DHT22;12772;49.794;10.024;2024-03-08T23:17:47;6.40;44.50
24636;DHT22;12772;49.794;10.024;2024-03-08T23:21:50;6.90;45.30
24636;DHT22;12772;49.794;10.024;2024-03-08T23:25:52;6.80;45.40
24636;DHT22;12772;49.794;10.024;2024-03-08T23:29:54;7.00;45.40
24636;DHT22;12772;49.794;10.024;2024-03-08T23:33:57;7.00;45.20
24636;DHT22;12772;49.794;10.024;2024-03-08T23:37:59;6.70;44.60
24636;DHT22;12772;49.794;10.024;2024-03-08T23:42:01;6.70;44.30
24636;DHT22;12772;49.794;10.024;2024-03-08T23:46:03;6.80;44.20
24636;DHT22;12772;49.794;10.024;2024-03-08T23:50:07;6.80;43.90
24636;DHT22;12772;49.794;10.024;2024-03-08T23:54:09;7.20;44.10
24636;DHT22;12772;49.794;10.024;2024-03-08T23:58:11;7.20;44.00
